sensor_id;sensor_type;location;lat;lon;timestamp;pressure;altitude;pressure_sealevel;temperature;humidity
30338;BME280;17143;51.888;5.408;2023-04-23T00:07:32;100610.94;;;9.94;100.00
30338;BME280;17143;51.888;5.408;2023-04-23T00:22:34;100595.50;;;9.81;100.00
30338;BME280;17143;51.888;5.408;2023-04-23T00:37:36;100581.28;;;9.74;100.00
30338;BME280;17143;51.888;5.408;2023-04-23T00:52:38;100553.91;;;9.65;100.00
30338;BME280;17143;51.888;5.408;2023-04-23T01:07:40;100549.59;;;9.65;100.00
30338;BME280;17143;51.888;5.408;2023-04-23T01:22:43;100541.41;;;9.58;100.00
30338;BME280;17143;51.888;5.408;2023-04-23T01:37:46;100521.06;;;9.51;100.00
30338;BME280;17143;51.888;5.408;2023-04-23T01:52:49;100522.53;;;9.62;100.00
30338;BME280;17143;51.888;5.408;2023-04-23T02:07:51;100521.72;;;9.63;100.00
30338;BME280;17143;51.888;5.408;2023-04-23T02:22:53;100497.25;;;9.59;100.00
30338;BME280;17143;51.888;5.408;2023-04-23T02:37:56;100489.44;;;9.59;100.00
30338;BME280;17143;51.888;5.408;2023-04-23T02:52:58;100492.94;;;9.60;100.00
30338;BME280;17143;51.888;5.408;2023-04-23T03:08:00;100501.16;;;9.67;100.00
30338;BME280;17143;51.888;5.408;2023-04-23T03:23:02;100484.66;;;9.67;100.00
30338;BME280;17143;51.888;5.408;2023-04-23T03:38:05;100468.88;;;9.64;100.00
30338;BME280;17143;51.888;5.408;2023-04-23T03:53:09;100475.09;;;9.50;100.00
30338;BME280;17143;51.888;5.408;2023-04-23T04:08:44;100470.13;;;9.38;100.00
30338;BME280;17143;51.888;5.408;2023-04-23T04:23:46;100474.44;;;9.38;100.00
30338;BME280;17143;51.888;5.408;2023-04-23T04:38:48;100466.97;;;9.44;100.00
30338;BME280;17143;51.888;5.408;2023-04-23T04:53:50;100485.06;;;9.58;100.00
30338;BME280;17143;51.888;5.408;2023-04-23T05:08:52;100458.34;;;9.61;100.00
30338;BME280;17143;51.888;5.408;2023-04-23T05:23:54;100480.38;;;9.85;100.00
30338;BME280;17143;51.888;5.408;2023-04-23T05:38:56;100478.53;;;11.25;100.00
30338;BME280;17143;51.888;5.408;2023-04-23T05:53:58;100473.16;;;14.80;100.00
30338;BME280;17143;51.888;5.408;2023-04-23T06:09:00;100472.66;;;17.24;100.00
30338;BME280;17143;51.888;5.408;2023-04-23T06:24:02;100453.19;;;18.54;93.51
30338;BME280;17143;51.888;5.408;2023-04-23T06:39:05;100436.25;;;19.64;86.58
30338;BME280;17143;51.888;5.408;2023-04-23T06:54:07;100429.88;;;20.33;78.67
30338;BME280;17143;51.888;5.408;2023-04-23T07:09:09;100428.19;;;20.44;74.96
30338;BME280;17143;51.888;5.408;2023-04-23T07:24:11;100424.13;;;21.00;71.04
30338;BME280;17143;51.888;5.408;2023-04-23T07:39:12;100412.88;;;21.42;69.46
30338;BME280;17143;51.888;5.408;2023-04-23T07:54:14;100414.78;;;21.90;66.76
30338;BME280;17143;51.888;5.408;2023-04-23T08:09:16;100395.34;;;22.36;65.16
30338;BME280;17143;51.888;5.408;2023-04-23T08:24:18;100395.31;;;22.55;64.44
30338;BME280;17143;51.888;5.408;2023-04-23T08:39:21;100390.03;;;22.47;63.11
30338;BME280;17143;51.888;5.408;2023-04-23T08:54:25;100372.28;;;22.57;62.67
30338;BME280;17143;51.888;5.408;2023-04-23T09:09:28;100389.13;;;22.48;61.75
30338;BME280;17143;51.888;5.408;2023-04-23T09:24:30;100382.84;;;22.99;59.99
30338;BME280;17143;51.888;5.408;2023-04-23T09:39:33;100360.63;;;23.09;58.79
30338;BME280;17143;51.888;5.408;2023-04-23T09:54:35;100372.19;;;23.08;57.24
30338;BME280;17143;51.888;5.408;2023-04-23T10:09:37;100352.75;;;22.85;56.53
30338;BME280;17143;51.888;5.408;2023-04-23T10:24:39;100349.34;;;22.15;54.34
30338;BME280;17143;51.888;5.408;2023-04-23T10:39:43;100336.09;;;22.03;55.68
30338;BME280;17143;51.888;5.408;2023-04-23T10:54:51;100307.78;;;22.15;54.92
30338;BME280;17143;51.888;5.408;2023-04-23T11:09:59;100291.81;;;22.27;53.32
30338;BME280;17143;51.888;5.408;2023-04-23T11:25:02;100279.44;;;22.19;53.09
30338;BME280;17143;51.888;5.408;2023-04-23T11:40:07;100245.88;;;22.09;53.82
30338;BME280;17143;51.888;5.408;2023-04-23T11:55:09;100214.06;;;21.98;55.27
30338;BME280;17143;51.888;5.408;2023-04-23T12:10:16;100209.63;;;21.82;56.09
30338;BME280;17143;51.888;5.408;2023-04-23T12:25:22;100181.13;;;22.54;54.75
30338;BME280;17143;51.888;5.408;2023-04-23T12:40:24;100160.69;;;22.69;53.34
30338;BME280;17143;51.888;5.408;2023-04-23T12:55:26;100144.16;;;22.11;52.73
30338;BME280;17143;51.888;5.408;2023-04-23T13:10:28;100117.72;;;21.72;54.54
30338;BME280;17143;51.888;5.408;2023-04-23T13:25:30;100100.09;;;21.50;55.68
30338;BME280;17143;51.888;5.408;2023-04-23T13:40:32;100070.94;;;21.45;56.74
30338;BME280;17143;51.888;5.408;2023-04-23T13:55:34;100048.94;;;21.20;56.74
30338;BME280;17143;51.888;5.408;2023-04-23T14:10:36;100025.97;;;20.83;57.40
30338;BME280;17143;51.888;5.408;2023-04-23T14:25:40;100011.84;;;20.36;61.17
30338;BME280;17143;51.888;5.408;2023-04-23T14:40:46;100043.06;;;19.24;68.28
30338;BME280;17143;51.888;5.408;2023-04-23T14:55:48;100068.91;;;17.81;74.36
30338;BME280;17143;51.888;5.408;2023-04-23T15:10:50;100069.00;;;17.25;84.60
30338;BME280;17143;51.888;5.408;2023-04-23T15:25:52;100074.19;;;16.67;90.92
30338;BME280;17143;51.888;5.408;2023-04-23T15:40:56;100064.06;;;16.41;94.46
30338;BME280;17143;51.888;5.408;2023-04-23T15:55:58;100044.59;;;16.30;95.35
30338;BME280;17143;51.888;5.408;2023-04-23T16:11:00;100015.88;;;15.93;97.97
30338;BME280;17143;51.888;5.408;2023-04-23T16:26:02;99976.84;;;15.68;98.91
30338;BME280;17143;51.888;5.408;2023-04-23T16:41:04;99921.56;;;15.18;100.00
30338;BME280;17143;51.888;5.408;2023-04-23T16:56:06;99866.63;;;14.84;100.00
30338;BME280;17143;51.888;5.408;2023-04-23T17:11:08;99826.97;;;14.69;100.00
30338;BME280;17143;51.888;5.408;2023-04-23T17:26:10;99798.66;;;14.53;100.00
30338;BME280;17143;51.888;5.408;2023-04-23T17:41:12;99788.81;;;14.43;100.00
30338;BME280;17143;51.888;5.408;2023-04-23T17:56:14;99748.44;;;14.32;100.00
30338;BME280;17143;51.888;5.408;2023-04-23T18:11:17;99711.25;;;14.11;100.00
30338;BME280;17143;51.888;5.408;2023-04-23T18:26:19;99700.25;;;13.86;100.00
30338;BME280;17143;51.888;5.408;2023-04-23T18:41:21;99694.59;;;13.68;100.00
30338;BME280;17143;51.888;5.408;2023-04-23T18:56:23;99673.44;;;13.59;100.00
30338;BME280;17143;51.888;5.408;2023-04-23T19:11:25;99662.00;;;13.56;100.00
30338;BME280;17143;51.888;5.408;2023-04-23T19:26:27;99679.63;;;13.63;100.00
30338;BME280;17143;51.888;5.408;2023-04-23T19:41:29;99658.97;;;13.03;100.00
30338;BME280;17143;51.888;5.408;2023-04-23T19:56:31;99643.44;;;12.76;100.00
30338;BME280;17143;51.888;5.408;2023-04-23T20:11:33;99622.63;;;12.79;100.00
30338;BME280;17143;51.888;5.408;2023-04-23T20:26:36;99604.41;;;12.82;100.00
30338;BME280;17143;51.888;5.408;2023-04-23T20:41:39;99613.31;;;12.56;100.00
30338;BME280;17143;51.888;5.408;2023-04-23T20:56:41;99602.50;;;12.43;100.00
30338;BME280;17143;51.888;5.408;2023-04-23T21:11:43;99593.66;;;12.36;100.00
30338;BME280;17143;51.888;5.408;2023-04-23T21:26:45;99589.00;;;12.26;100.00
30338;BME280;17143;51.888;5.408;2023-04-23T21:41:47;99588.88;;;12.21;100.00
30338;BME280;17143;51.888;5.408;2023-04-23T21:56:49;99597.59;;;11.91;100.00
30338;BME280;17143;51.888;5.408;2023-04-23T22:11:51;99640.81;;;11.54;100.00
30338;BME280;17143;51.888;5.408;2023-04-23T22:26:53;99656.44;;;11.26;100.00
30338;BME280;17143;51.888;5.408;2023-04-23T22:41:55;99659.69;;;11.19;100.00
30338;BME280;17143;51.888;5.408;2023-04-23T22:56:57;99693.25;;;11.10;100.00
30338;BME280;17143;51.888;5.408;2023-04-23T23:12:00;99702.66;;;11.05;100.00
30338;BME280;17143;51.888;5.408;2023-04-23T23:27:02;99709.75;;;11.09;100.00
30338;BME280;17143;51.888;5.408;2023-04-23T23:42:04;99719.22;;;11.07;100.00
30338;BME280;17143;51.888;5.408;2023-04-23T23:57:06;99726.63;;;10.95;100.00
